createdAt,value
2018-04-01T00:01:52.540Z,34.67
2018-04-01T00:04:19.409Z,39.23
2018-04-01T00:06:46.273Z,42.13
2018-04-01T00:09:13.376Z,43.90
2018-04-01T00:11:40.239Z,35.03
2018-04-01T00:14:07.118Z,35.20
2018-04-01T00:16:33.981Z,37.00
2018-04-01T00:19:00.858Z,36.67
2018-04-01T00:21:27.733Z,37.50
2018-04-01T00:23:54.749Z,31.70
2018-04-01T00:26:21.613Z,43.73
2018-04-01T00:28:48.497Z,42.60
2018-04-01T00:31:15.377Z,37.83
2018-04-01T00:33:42.256Z,35.20
2018-04-01T00:36:09.135Z,38.27
2018-04-01T00:38:35.998Z,36.47
2018-04-01T00:41:02.866Z,38.30
2018-04-01T00:43:29.742Z,34.43
2018-04-01T00:45:56.620Z,35.90
2018-04-01T00:48:23.497Z,35.77
2018-04-01T00:50:50.357Z,34.70
2018-04-01T00:53:17.246Z,37.50
2018-04-01T00:55:44.106Z,34.37
2018-04-01T00:58:10.978Z,34.13
2018-04-01T01:00:37.862Z,42.33
2018-04-01T01:03:04.735Z,34.53
2018-04-01T01:05:31.606Z,36.43
2018-04-01T01:07:58.473Z,40.33
2018-04-01T01:10:25.361Z,38.87
2018-04-01T01:12:52.222Z,34.47
2018-04-01T01:15:19.105Z,36.37
2018-04-01T01:17:45.970Z,33.67
2018-04-01T01:20:12.842Z,36.10
2018-04-01T01:22:39.710Z,34.80
2018-04-01T01:25:06.577Z,32.40
2018-04-01T01:27:33.453Z,33.40
2018-04-01T01:30:00.328Z,34.63
2018-04-01T01:32:27.353Z,34.73
2018-04-01T01:34:54.217Z,35.47
2018-04-01T01:37:21.085Z,32.53
2018-04-01T01:39:47.965Z,34.67
2018-04-01T01:42:14.825Z,30.63
2018-04-01T01:44:41.700Z,30.43
2018-04-01T01:47:08.558Z,33.33
2018-04-01T01:49:35.461Z,31.40
2018-04-01T01:52:02.327Z,33.53
2018-04-01T01:54:29.196Z,30.77
2018-04-01T01:56:56.071Z,32.10
2018-04-01T01:59:22.929Z,33.13
2018-04-01T02:01:49.815Z,31.30
2018-04-01T02:04:16.679Z,31.47
2018-04-01T02:06:43.553Z,36.83
2018-04-01T02:09:10.417Z,33.17
2018-04-01T02:11:37.436Z,35.17
2018-04-01T02:14:04.310Z,34.13
2018-04-01T02:16:31.182Z,34.73
2018-04-01T02:18:58.067Z,38.33
2018-04-01T02:21:24.916Z,32.03
2018-04-01T02:23:51.803Z,36.57
2018-04-01T02:26:18.671Z,30.80
2018-04-01T02:28:45.549Z,32.93
2018-04-01T02:31:12.410Z,31.83
2018-04-01T02:33:39.279Z,33.07
2018-04-01T02:36:06.171Z,40.00
2018-04-01T02:38:33.189Z,41.83
2018-04-01T02:41:00.059Z,37.43
2018-04-01T02:43:26.922Z,40.73
2018-04-01T02:45:53.807Z,40.70
2018-04-01T02:48:20.674Z,40.50
2018-04-01T02:50:47.550Z,33.67
2018-04-01T02:53:14.409Z,42.17
2018-04-01T02:55:41.286Z,40.83
2018-04-01T02:58:08.152Z,42.17
2018-04-01T03:00:35.026Z,39.40
2018-04-01T03:03:01.890Z,34.60
2018-04-01T03:05:28.758Z,38.03
2018-04-01T03:07:55.625Z,37.27
2018-04-01T03:10:22.610Z,42.10
2018-04-01T03:12:49.485Z,37.13
2018-04-01T03:15:16.357Z,36.93
2018-04-01T03:17:43.223Z,34.53
2018-04-01T03:20:10.081Z,35.03
2018-04-01T03:22:36.958Z,40.43
2018-04-01T03:25:03.826Z,43.67
2018-04-01T03:27:30.702Z,36.57
2018-04-01T03:29:57.584Z,35.70
2018-04-01T03:32:24.485Z,37.97
2018-04-01T03:34:51.393Z,35.27
2018-04-01T03:37:18.281Z,35.17
2018-04-01T03:39:45.155Z,32.57
2018-04-01T03:42:12.037Z,33.83
2018-04-01T03:44:38.897Z,38.73
2018-04-01T03:47:05.786Z,33.27
2018-04-01T03:49:32.756Z,36.53
2018-04-01T03:51:59.642Z,35.60
2018-04-01T03:54:26.525Z,38.90
2018-04-01T03:56:53.441Z,39.37
2018-04-01T03:59:20.551Z,38.33
2018-04-01T04:01:47.430Z,36.10
2018-04-01T04:04:14.309Z,36.80
2018-04-01T04:06:41.198Z,33.50
2018-04-01T04:09:08.050Z,38.47
2018-04-01T04:11:34.909Z,40.93
2018-04-01T04:14:01.786Z,37.17
2018-04-01T04:16:28.662Z,42.70
2018-04-01T04:18:55.545Z,39.83
2018-04-01T04:21:22.416Z,43.93
2018-04-01T04:23:49.290Z,47.00
2018-04-01T04:26:16.155Z,51.13
2018-04-01T04:28:43.031Z,45.50
2018-04-01T04:31:09.912Z,48.03
2018-04-01T04:33:36.773Z,50.90
2018-04-01T04:36:03.650Z,43.53
2018-04-01T04:38:30.516Z,45.43
2018-04-01T04:40:57.386Z,48.57
2018-04-01T04:43:24.256Z,45.73
2018-04-01T04:45:51.569Z,43.23
2018-04-01T04:48:18.437Z,43.87
2018-04-01T04:50:45.298Z,47.23
2018-04-01T04:53:12.430Z,42.30
2018-04-01T04:55:39.298Z,42.73
2018-04-01T04:58:06.174Z,47.27
2018-04-01T05:00:33.049Z,43.30
2018-04-01T05:02:59.920Z,45.23
2018-04-01T05:05:26.789Z,43.77
2018-04-01T05:07:53.657Z,44.10
2018-04-01T05:10:20.537Z,43.87
2018-04-01T05:12:47.405Z,45.80
2018-04-01T05:15:14.293Z,50.13
2018-04-01T05:17:41.189Z,48.97
2018-04-01T05:20:08.070Z,50.17
2018-04-01T05:22:34.954Z,52.80
2018-04-01T05:25:01.824Z,50.80
2018-04-01T05:27:28.721Z,53.77
2018-04-01T05:29:55.602Z,54.83
2018-04-01T05:32:22.557Z,44.43
2018-04-01T05:34:49.449Z,45.23
2018-04-01T05:37:16.338Z,45.23
2018-04-01T05:39:43.200Z,38.57
2018-04-01T05:42:10.073Z,50.90
2018-04-01T05:44:36.941Z,42.10
2018-04-01T05:47:03.812Z,46.80
2018-04-01T05:49:30.678Z,47.40
2018-04-01T05:51:57.558Z,46.27
2018-04-01T05:54:24.428Z,50.47
2018-04-01T05:56:51.305Z,44.73
2018-04-01T05:59:18.177Z,44.93
2018-04-01T06:01:45.166Z,46.13
2018-04-01T06:04:12.021Z,45.63
2018-04-01T06:06:38.885Z,49.33
2018-04-01T06:09:05.765Z,52.13
2018-04-01T06:11:32.629Z,55.63
2018-04-01T06:13:59.505Z,60.77
2018-04-01T06:16:26.365Z,50.37
2018-04-01T06:18:53.559Z,56.50
2018-04-01T06:21:20.373Z,50.93
2018-04-01T06:23:47.237Z,51.13
2018-04-01T06:26:14.117Z,50.47
2018-04-01T06:28:40.995Z,54.20
2018-04-01T06:31:07.870Z,51.27
2018-04-01T06:33:34.733Z,50.10
2018-04-01T06:36:01.626Z,50.67
2018-04-01T06:38:28.490Z,47.73
2018-04-01T06:40:55.371Z,49.20
2018-04-01T06:43:22.230Z,45.80
2018-04-01T06:45:49.415Z,54.47
2018-04-01T06:48:16.285Z,68.17
2018-04-01T06:50:43.150Z,57.07
2018-04-01T06:53:10.038Z,49.97
2018-04-01T06:55:36.901Z,53.37
2018-04-01T06:58:03.760Z,51.80
2018-04-01T07:00:30.641Z,47.53
2018-04-01T07:02:57.522Z,52.27
2018-04-01T07:05:24.381Z,48.20
2018-04-01T07:07:51.517Z,48.17
2018-04-01T07:10:18.377Z,45.70
2018-04-01T07:12:45.250Z,48.53
2018-04-01T07:15:12.155Z,50.13
2018-04-01T07:17:39.025Z,45.43
2018-04-01T07:20:05.896Z,45.27
2018-04-01T07:22:33.070Z,54.80
2018-04-01T07:24:59.939Z,49.57
2018-04-01T07:27:26.790Z,48.23
2018-04-01T07:29:53.666Z,52.03
2018-04-01T07:32:20.533Z,60.33
2018-04-01T07:34:47.402Z,58.03
2018-04-01T07:37:14.281Z,52.40
2018-04-01T07:39:41.150Z,57.57
2018-04-01T07:42:08.017Z,52.53
2018-04-01T07:44:34.904Z,49.57
2018-04-01T07:47:01.770Z,60.57
2018-04-01T07:49:28.667Z,65.57
2018-04-01T07:51:55.542Z,49.90
2018-04-01T07:54:22.398Z,50.50
2018-04-01T07:56:49.269Z,47.07
2018-04-01T07:59:16.129Z,46.60
2018-04-01T08:01:43.016Z,43.03
2018-04-01T08:04:09.873Z,53.17
2018-04-01T08:06:36.754Z,47.17
2018-04-01T08:09:03.630Z,40.40
2018-04-01T08:11:30.515Z,43.13
2018-04-01T08:13:57.373Z,40.77
2018-04-01T08:16:24.234Z,42.57
2018-04-01T08:18:51.261Z,44.07
2018-04-01T08:21:18.140Z,47.07
2018-04-01T08:23:45.010Z,48.80
2018-04-01T08:26:11.881Z,43.57
2018-04-01T08:28:38.766Z,47.00
2018-04-01T08:31:05.641Z,42.83
2018-04-01T08:33:32.506Z,43.53
2018-04-01T08:35:59.385Z,42.27
2018-04-01T08:38:26.261Z,42.23
2018-04-01T08:40:53.143Z,46.33
2018-04-01T08:43:20.000Z,47.67
2018-04-01T08:45:46.879Z,44.83
2018-04-01T08:48:13.758Z,45.30
2018-04-01T08:50:40.628Z,42.73
2018-04-01T08:53:07.503Z,43.50
2018-04-01T08:55:34.365Z,40.73
2018-04-01T08:58:01.246Z,42.20
2018-04-01T09:00:28.102Z,38.90
2018-04-01T09:02:54.961Z,38.73
2018-04-01T09:05:21.837Z,40.17
2018-04-01T09:07:48.715Z,40.83
2018-04-01T09:10:15.594Z,40.93
2018-04-01T09:12:42.454Z,34.40
2018-04-01T09:15:09.334Z,39.67
2018-04-01T09:17:36.207Z,39.40
2018-04-01T09:20:03.086Z,39.00
2018-04-01T09:22:29.946Z,35.63
2018-04-01T09:24:56.829Z,35.57
2018-04-01T09:27:23.690Z,38.30
2018-04-01T09:29:50.584Z,38.67
2018-04-01T09:32:17.449Z,37.77
2018-04-01T09:34:44.325Z,36.27
2018-04-01T09:37:11.191Z,38.37
2018-04-01T09:39:38.081Z,40.27
2018-04-01T09:42:04.942Z,37.67
2018-04-01T09:44:31.979Z,40.03
2018-04-01T09:46:58.873Z,41.53
2018-04-01T09:49:25.772Z,37.27
2018-04-01T09:51:52.722Z,33.20
2018-04-01T09:54:19.637Z,36.10
2018-04-01T09:56:46.542Z,37.23
2018-04-01T09:59:13.869Z,37.93
2018-04-01T10:01:41.283Z,39.27
2018-04-01T10:04:08.691Z,41.77
2018-04-01T10:06:36.113Z,39.53
2018-04-01T10:09:03.526Z,40.93
2018-04-01T10:11:30.995Z,39.13
2018-04-01T10:13:58.397Z,39.23
2018-04-01T10:16:25.815Z,40.10
2018-04-01T10:18:53.218Z,35.37
2018-04-01T10:21:20.901Z,41.50
2018-04-01T10:23:48.306Z,40.00
2018-04-01T10:26:15.714Z,34.97
2018-04-01T10:28:43.401Z,33.60
2018-04-01T10:31:10.805Z,35.13
2018-04-01T10:33:38.204Z,32.43
2018-04-01T10:36:05.630Z,33.33
2018-04-01T10:38:33.098Z,31.40
2018-04-01T10:41:00.497Z,31.07
2018-04-01T10:43:27.920Z,33.27
2018-04-01T10:45:55.404Z,36.17
2018-04-01T10:48:22.903Z,32.33
2018-04-01T10:50:50.394Z,32.10
2018-04-01T10:53:17.800Z,34.30
2018-04-01T10:55:44.679Z,30.73
2018-04-01T10:58:11.595Z,32.80
2018-04-01T11:00:38.481Z,32.17
2018-04-01T11:03:05.430Z,31.70
2018-04-01T11:05:32.310Z,31.37
2018-04-01T11:07:59.354Z,28.80
2018-04-01T11:10:26.284Z,33.10
2018-04-01T11:12:53.152Z,28.87
2018-04-01T11:15:20.039Z,30.83
2018-04-01T11:17:46.920Z,29.93
2018-04-01T11:20:13.802Z,28.63
2018-04-01T11:22:40.666Z,27.03
2018-04-01T11:25:07.542Z,27.77
2018-04-01T11:27:34.439Z,25.60
2018-04-01T11:30:01.309Z,25.53
2018-04-01T11:32:28.209Z,26.23
2018-04-01T11:34:55.097Z,25.17
2018-04-01T11:37:22.036Z,24.67
2018-04-01T11:39:48.932Z,24.70
2018-04-01T11:42:15.802Z,23.73
2018-04-01T11:44:42.685Z,25.50
2018-04-01T11:47:09.624Z,22.47
2018-04-01T11:49:36.513Z,21.87
2018-04-01T11:52:03.382Z,20.10
2018-04-01T11:54:30.297Z,20.27
2018-04-01T11:56:57.174Z,23.00
2018-04-01T11:59:24.147Z,22.07
2018-04-01T12:01:51.068Z,20.77
2018-04-01T12:04:17.925Z,22.33
2018-04-01T12:06:44.822Z,22.23
2018-04-01T12:09:11.698Z,21.60
2018-04-01T12:11:38.578Z,22.53
2018-04-01T12:14:05.665Z,23.03
2018-04-01T12:16:32.686Z,23.00
2018-04-01T12:18:59.595Z,19.93
2018-04-01T12:21:26.722Z,22.87
2018-04-01T12:23:53.665Z,22.13
2018-04-01T12:26:20.542Z,20.33
2018-04-01T12:28:47.430Z,23.67
2018-04-01T12:31:14.285Z,21.47
2018-04-01T12:33:41.172Z,20.40
2018-04-01T12:36:08.145Z,18.73
2018-04-01T12:38:35.379Z,21.17
2018-04-01T12:41:02.352Z,19.23
2018-04-01T12:43:29.213Z,19.77
2018-04-01T12:45:56.125Z,19.50
2018-04-01T12:48:23.005Z,19.87
2018-04-01T12:50:50.002Z,20.07
2018-04-01T12:53:16.963Z,21.23
2018-04-01T12:55:43.868Z,20.27
2018-04-01T12:58:10.848Z,21.27
2018-04-01T13:00:37.738Z,21.23
2018-04-01T13:03:04.614Z,22.53
2018-04-01T13:05:31.490Z,20.77
2018-04-01T13:07:58.360Z,21.20
2018-04-01T13:10:25.294Z,20.73
2018-04-01T13:12:52.221Z,22.67
2018-04-01T13:15:19.188Z,22.77
2018-04-01T13:17:46.095Z,23.70
2018-04-01T13:20:12.976Z,24.23
2018-04-01T13:22:39.857Z,25.10
2018-04-01T13:25:06.722Z,25.23
2018-04-01T13:27:33.627Z,27.60
2018-04-01T13:30:00.581Z,26.87
2018-04-01T13:32:27.707Z,24.40
2018-04-01T13:34:54.714Z,27.60
2018-04-01T13:37:22.144Z,28.87
2018-04-01T13:39:49.206Z,28.03
2018-04-01T13:42:16.070Z,30.43
2018-04-01T13:44:42.948Z,32.90
2018-04-01T13:47:09.825Z,29.60
2018-04-01T13:49:36.850Z,30.73
2018-04-01T13:52:04.530Z,32.30
2018-04-01T13:54:31.473Z,31.10
2018-04-01T13:56:58.609Z,29.27
2018-04-01T13:59:25.622Z,30.87
2018-04-01T14:01:52.488Z,33.80
2018-04-01T14:04:19.353Z,34.83
2018-04-01T14:06:46.227Z,34.40
2018-04-01T14:09:13.089Z,36.23
2018-04-01T14:11:40.199Z,35.53
2018-04-01T14:14:07.083Z,37.33
2018-04-01T14:16:33.965Z,34.90
2018-04-01T14:19:00.826Z,35.60
2018-04-01T14:21:27.993Z,38.30
2018-04-01T14:23:54.881Z,38.67
2018-04-01T14:26:22.593Z,35.47
2018-04-01T14:28:49.536Z,34.40
2018-04-01T14:31:16.563Z,36.10
2018-04-01T14:33:43.515Z,36.27
2018-04-01T14:36:10.386Z,33.37
2018-04-01T14:38:37.283Z,32.23
2018-04-01T14:41:04.505Z,30.07
2018-04-01T14:43:36.968Z,29.40
2018-04-01T14:46:03.881Z,29.07
2018-04-01T14:48:30.914Z,29.33
2018-04-01T14:50:57.805Z,30.10
2018-04-01T14:53:25.015Z,28.93
2018-04-01T14:55:52.134Z,29.80
2018-04-01T14:58:19.054Z,30.37
2018-04-01T15:00:46.043Z,28.47
2018-04-01T15:03:12.922Z,25.97
2018-04-01T15:05:39.805Z,27.73
2018-04-01T15:08:06.715Z,27.87
2018-04-01T15:10:33.595Z,27.87
2018-04-01T15:13:00.515Z,27.97
2018-04-01T15:15:27.398Z,27.53
2018-04-01T15:17:54.283Z,27.40
2018-04-01T15:20:21.242Z,27.73
2018-04-01T15:22:48.165Z,28.80
2018-04-01T15:25:15.033Z,29.70
2018-04-01T15:27:41.927Z,29.77
2018-04-01T15:30:08.881Z,31.30
2018-04-01T15:32:35.733Z,29.17
2018-04-01T15:35:02.683Z,32.57
2018-04-01T15:37:29.556Z,29.77
2018-04-01T15:39:56.422Z,29.67
2018-04-01T15:42:24.540Z,28.03
2018-04-01T15:44:51.612Z,30.10
2018-04-01T15:47:18.481Z,28.57
2018-04-01T15:49:45.359Z,26.90
2018-04-01T15:52:12.317Z,30.33
2018-04-01T15:54:39.126Z,30.70
2018-04-01T15:57:06.128Z,31.50
2018-04-01T15:59:33.078Z,32.57
2018-04-01T16:01:59.978Z,33.23
2018-04-01T16:04:26.874Z,30.23
2018-04-01T16:06:53.768Z,30.43
2018-04-01T16:09:20.640Z,31.50
2018-04-01T16:11:47.557Z,29.70
2018-04-01T16:14:14.436Z,29.67
2018-04-01T16:16:41.361Z,31.60
2018-04-01T16:19:08.298Z,29.83
2018-04-01T16:21:35.093Z,26.03
2018-04-01T16:24:02.010Z,23.30
2018-04-01T16:26:28.941Z,21.87
2018-04-01T16:28:55.825Z,19.77
2018-04-01T16:31:22.726Z,18.83
2018-04-01T16:33:49.599Z,20.07
2018-04-01T16:36:16.470Z,18.50
2018-04-01T16:38:43.354Z,21.80
2018-04-01T16:41:10.218Z,20.57
2018-04-01T16:43:37.131Z,20.83
2018-04-01T16:46:03.989Z,19.63
2018-04-01T16:48:30.892Z,20.77
2018-04-01T16:50:57.762Z,21.77
2018-04-01T16:53:24.638Z,21.63
2018-04-01T16:55:54.065Z,21.30
2018-04-01T16:58:21.275Z,23.87
2018-04-01T17:00:48.165Z,24.37
2018-04-01T17:03:15.033Z,20.87
2018-04-01T17:05:41.905Z,22.90
2018-04-01T17:08:09.025Z,23.27
2018-04-01T17:10:35.893Z,22.17
2018-04-01T17:13:02.766Z,20.47
2018-04-01T17:15:29.645Z,19.97
2018-04-01T17:17:56.536Z,20.80
2018-04-01T17:20:23.451Z,22.53
2018-04-01T17:22:50.330Z,21.20
2018-04-01T17:25:17.206Z,20.13
2018-04-01T17:27:44.075Z,22.97
2018-04-01T17:30:10.949Z,21.67
2018-04-01T17:32:37.806Z,22.40
2018-04-01T17:35:04.688Z,22.07
2018-04-01T17:37:31.578Z,23.23
2018-04-01T17:39:58.456Z,23.23
2018-04-01T17:42:25.346Z,24.50
2018-04-01T17:44:52.226Z,26.60
2018-04-01T17:47:19.135Z,25.90
2018-04-01T17:49:45.997Z,25.57
2018-04-01T17:52:12.890Z,23.10
2018-04-01T17:54:39.772Z,18.03
2018-04-01T17:57:06.653Z,16.07
2018-04-01T17:59:33.524Z,17.70
2018-04-01T18:02:00.488Z,17.63
2018-04-01T18:04:27.376Z,18.10
2018-04-01T18:06:54.338Z,17.93
2018-04-01T18:09:21.281Z,20.37
2018-04-01T18:11:48.190Z,24.10
2018-04-01T18:14:15.062Z,26.73
2018-04-01T18:16:41.937Z,28.40
2018-04-01T18:19:09.234Z,29.13
2018-04-01T18:21:36.111Z,30.70
2018-04-01T18:24:03.046Z,26.30
2018-04-01T18:26:29.937Z,26.97
2018-04-01T18:28:56.831Z,24.03
2018-04-01T18:31:23.765Z,27.83
2018-04-01T18:33:50.630Z,23.13
2018-04-01T18:36:17.509Z,22.70
2018-04-01T18:38:44.377Z,20.60
2018-04-01T18:41:11.270Z,19.70
2018-04-01T18:43:38.165Z,16.67
2018-04-01T18:46:05.045Z,18.37
2018-04-01T18:48:31.909Z,18.43
2018-04-01T18:50:58.848Z,18.47
2018-04-01T18:53:25.879Z,17.43
2018-04-01T18:55:52.789Z,20.87
2018-04-01T18:58:19.694Z,22.20
2018-04-01T19:00:46.565Z,23.07
2018-04-01T19:03:13.451Z,23.57
2018-04-01T19:05:40.358Z,25.77
2018-04-01T19:08:07.229Z,27.97
2018-04-01T19:10:34.125Z,26.40
2018-04-01T19:13:01.080Z,27.23
2018-04-01T19:15:27.990Z,29.73
2018-04-01T19:17:55.488Z,30.20
2018-04-01T19:20:22.985Z,30.17
2018-04-01T19:22:50.754Z,33.27
2018-04-01T19:25:18.166Z,32.43
2018-04-01T19:27:45.672Z,33.10
2018-04-01T19:30:13.107Z,37.97
2018-04-01T19:32:40.514Z,41.73
2018-04-01T19:35:07.945Z,48.00
2018-04-01T19:37:35.361Z,43.83
2018-04-01T19:40:02.884Z,49.63
2018-04-01T19:42:30.285Z,46.07
2018-04-01T19:44:57.721Z,46.40
2018-04-01T19:47:25.164Z,47.80
2018-04-01T19:49:52.649Z,50.60
2018-04-01T19:52:20.212Z,48.30
2018-04-01T19:54:47.638Z,48.73
2018-04-01T19:57:15.062Z,52.70
2018-04-01T19:59:42.805Z,48.67
2018-04-01T20:02:10.227Z,50.20
2018-04-01T20:04:37.638Z,49.53
2018-04-01T20:07:05.166Z,48.30
2018-04-01T20:09:32.910Z,49.00
2018-04-01T20:12:00.363Z,53.10
2018-04-01T20:14:27.793Z,46.80
2018-04-01T20:16:55.213Z,44.83
2018-04-01T20:19:22.638Z,44.27
2018-04-01T20:21:50.061Z,42.50
2018-04-01T20:24:17.480Z,47.20
2018-04-01T20:26:44.927Z,43.80
2018-04-01T20:29:12.374Z,41.67
2018-04-01T20:31:39.829Z,47.07
2018-04-01T20:34:07.246Z,43.03
2018-04-01T20:36:35.134Z,43.77
2018-04-01T20:39:02.579Z,41.03
2018-04-01T20:41:30.043Z,42.07
2018-04-01T20:43:57.487Z,45.37
2018-04-01T20:46:25.063Z,41.50
2018-04-01T20:48:52.528Z,43.10
2018-04-01T20:51:20.346Z,45.73
2018-04-01T20:53:47.821Z,42.73
2018-04-01T20:56:15.288Z,47.80
2018-04-01T20:58:42.664Z,49.70
2018-04-01T21:01:10.153Z,50.33
2018-04-01T21:03:37.572Z,46.40
2018-04-01T21:06:05.005Z,50.17
2018-04-01T21:08:32.476Z,52.00
2018-04-01T21:10:59.909Z,53.67
2018-04-01T21:13:27.360Z,53.13
2018-04-01T21:15:54.839Z,55.23
2018-04-01T21:18:22.315Z,53.53
2018-04-01T21:20:49.764Z,65.27
2018-04-01T21:23:17.242Z,64.57
2018-04-01T21:25:44.712Z,57.77
2018-04-01T21:28:12.137Z,61.13
2018-04-01T21:30:39.568Z,69.07
2018-04-01T21:33:07.030Z,57.73
2018-04-01T21:35:34.438Z,63.70
2018-04-01T21:38:01.882Z,63.77
2018-04-01T21:40:29.316Z,62.50
2018-04-01T21:42:56.760Z,59.70
2018-04-01T21:45:24.223Z,65.60
2018-04-01T21:47:51.697Z,66.13
2018-04-01T21:50:19.482Z,61.23
2018-04-01T21:52:47.116Z,59.67
2018-04-01T21:55:14.481Z,56.13
2018-04-01T21:57:41.932Z,58.07
2018-04-01T22:00:09.354Z,58.57
2018-04-01T22:02:36.766Z,56.63
2018-04-01T22:05:04.278Z,61.20
2018-04-01T22:07:31.698Z,54.13
2018-04-01T22:09:59.116Z,55.70
2018-04-01T22:12:26.658Z,54.07
2018-04-01T22:14:54.061Z,55.27
2018-04-01T22:17:21.562Z,56.73
2018-04-01T22:19:48.984Z,56.97
2018-04-01T22:22:16.409Z,58.87
2018-04-01T22:24:43.815Z,60.00
2018-04-01T22:27:11.229Z,59.33
2018-04-01T22:29:38.672Z,61.43
2018-04-01T22:32:06.070Z,74.57
2018-04-01T22:34:33.486Z,64.60
2018-04-01T22:37:00.914Z,65.33
2018-04-01T22:39:28.317Z,67.33
2018-04-01T22:41:55.766Z,63.90
2018-04-01T22:44:23.174Z,74.73
2018-04-01T22:46:50.616Z,75.10
2018-04-01T22:49:18.026Z,66.20
2018-04-01T22:51:45.450Z,71.17
2018-04-01T22:54:12.854Z,73.90
2018-04-01T22:56:40.273Z,77.23
2018-04-01T22:59:07.689Z,57.63
2018-04-01T23:01:35.111Z,52.63
2018-04-01T23:04:02.529Z,48.43
2018-04-01T23:06:29.954Z,50.70
2018-04-01T23:08:57.381Z,47.27
2018-04-01T23:11:24.801Z,46.70
2018-04-01T23:13:52.229Z,48.87
2018-04-01T23:16:19.660Z,50.80
2018-04-01T23:18:47.072Z,46.53
2018-04-01T23:21:14.497Z,52.10
2018-04-01T23:23:41.892Z,52.93
2018-04-01T23:26:09.310Z,48.93
2018-04-01T23:28:36.730Z,47.90
2018-04-01T23:31:04.149Z,44.57
2018-04-01T23:33:31.557Z,40.63
2018-04-01T23:35:58.973Z,41.57
2018-04-01T23:38:26.382Z,36.70
2018-04-01T23:40:53.806Z,35.50
2018-04-01T23:43:21.234Z,33.43
2018-04-01T23:45:48.923Z,31.77
2018-04-01T23:48:16.327Z,32.83
2018-04-01T23:50:43.737Z,31.73
2018-04-01T23:53:11.162Z,29.60
2018-04-01T23:55:38.565Z,30.47
2018-04-01T23:58:05.990Z,30.57
